Time;durP1;ratioP1;P1;durP2;ratioP2;P2;SDS_P1;SDS_P2;PMS_P1;PMS_P2;Temp;Humidity;BMP_temperature;BMP_pressure;BME280_temperature;BME280_humidity;BME280_pressure;Samples;Min_cycle;Max_cycle;Signal;HPM_P1;HPM_P2
2023/05/15 00:02:17;;;;;;;52.22;40.38;;;11.90;99.90;;;;;;5116641;27;20484;-90
2023/05/15 00:04:43;;;;;;;50.57;39.63;;;12.00;99.90;;;;;;5118104;27;20819;-89
2023/05/15 00:07:09;;;;;;;53.25;40.40;;;11.50;99.90;;;;;;5116287;27;20905;-91
2023/05/15 00:09:35;;;;;;;57.75;42.20;;;11.50;99.90;;;;;;5118062;27;20422;-90
2023/05/15 00:12:01;;;;;;;49.83;38.88;;;11.70;99.90;;;;;;5116395;27;20447;-89
2023/05/15 00:14:26;;;;;;;50.03;38.97;;;11.50;99.90;;;;;;5118724;27;20411;-90
2023/05/15 00:16:52;;;;;;;49.43;38.67;;;11.30;99.90;;;;;;5117708;27;20689;-91
2023/05/15 00:19:18;;;;;;;46.33;36.70;;;11.30;99.90;;;;;;5116001;27;20400;-89
2023/05/15 00:21:43;;;;;;;57.33;39.85;;;11.10;99.90;;;;;;5117455;27;20414;-90
2023/05/15 00:24:09;;;;;;;51.63;38.77;;;11.40;99.90;;;;;;5115753;27;20404;-90
2023/05/15 00:26:35;;;;;;;51.78;38.55;;;11.10;99.90;;;;;;5117502;27;20395;-90
2023/05/15 00:29:01;;;;;;;44.35;35.85;;;11.30;99.90;;;;;;5115472;27;20405;-90
2023/05/15 00:31:27;;;;;;;47.63;37.33;;;11.30;99.90;;;;;;5117355;27;20393;-90
2023/05/15 00:33:53;;;;;;;48.20;36.75;;;11.30;99.90;;;;;;5116544;27;20469;-90
2023/05/15 00:36:20;;;;;;;53.63;38.47;;;10.90;99.90;;;;;;5116435;27;20463;-90
2023/05/15 00:38:46;;;;;;;45.10;35.47;;;11.20;99.90;;;;;;5117553;27;20826;-89
2023/05/15 00:41:13;;;;;;;50.88;37.13;;;11.00;99.90;;;;;;5115438;27;20405;-89
2023/05/15 00:43:40;;;;;;;48.63;36.17;;;11.00;99.90;;;;;;5117019;27;20409;-91
2023/05/15 00:46:06;;;;;;;46.10;37.15;;;10.90;99.90;;;;;;5115160;27;20416;-90
2023/05/15 00:48:32;;;;;;;48.00;38.05;;;10.90;99.90;;;;;;5116951;27;20803;-90
2023/05/15 00:50:59;;;;;;;51.20;37.47;;;10.90;99.90;;;;;;5115558;27;20408;-90
2023/05/15 00:53:26;;;;;;;49.60;38.65;;;10.80;99.90;;;;;;5116287;27;20491;-89
2023/05/15 00:55:56;;;;;;;47.13;36.15;;;10.80;99.90;;;;;;5116953;27;20509;-90
2023/05/15 00:58:23;;;;;;;48.25;37.50;;;10.80;99.90;;;;;;5115025;27;20404;-89
2023/05/15 01:00:49;;;;;;;46.78;36.13;;;10.70;99.90;;;;;;5116994;27;20393;-90
2023/05/15 01:03:16;;;;;;;47.92;37.28;;;10.60;99.90;;;;;;5114942;27;20751;-91
2023/05/15 01:05:42;;;;;;;54.63;38.53;;;10.60;99.90;;;;;;5115655;27;20412;-89
2023/05/15 01:08:26;;;;;;;44.97;36.30;;;10.60;99.90;;;;;;5114928;27;20396;-90
2023/05/15 01:10:53;;;;;;;44.55;36.80;;;10.60;99.90;;;;;;5115995;27;20397;-90
2023/05/15 01:13:20;;;;;;;44.58;35.45;;;10.60;99.90;;;;;;5116754;27;20760;-90
2023/05/15 01:15:46;;;;;;;43.72;35.63;;;10.80;99.90;;;;;;5114138;27;20424;-90
2023/05/15 01:18:11;;;;;;;43.95;35.10;;;10.60;99.90;;;;;;5116256;27;20396;-90
2023/05/15 01:20:53;;;;;;;41.53;34.70;;;10.70;99.90;;;;;;5114867;27;20477;-90
2023/05/15 01:23:30;;;;;;;40.85;34.65;;;10.70;99.90;;;;;;5116680;27;20744;-89
2023/05/15 01:26:04;;;;;;;50.33;37.07;;;10.90;99.90;;;;;;5115727;27;20910;-90
2023/05/15 01:28:35;;;;;;;41.13;33.50;;;10.70;99.90;;;;;;5114747;27;20432;-89
2023/05/15 01:31:15;;;;;;;41.13;33.78;;;10.70;99.90;;;;;;5116163;27;20777;-90
2023/05/15 01:33:46;;;;;;;42.90;34.28;;;10.50;99.90;;;;;;5114141;27;20433;-92
2023/05/15 01:36:17;;;;;;;44.00;35.47;;;10.50;99.90;;;;;;5116056;27;20505;-90
2023/05/15 01:38:52;;;;;;;46.42;35.65;;;10.40;99.90;;;;;;5114680;27;20408;-90
2023/05/15 01:41:41;;;;;;;41.40;34.58;;;10.70;99.90;;;;;;5114623;27;20802;-90
2023/05/15 01:44:30;;;;;;;43.40;35.63;;;10.40;99.90;;;;;;5116104;27;20485;-90
2023/05/15 01:47:03;;;;;;;44.30;35.75;;;10.40;99.90;;;;;;5113973;27;20417;-91
2023/05/15 01:49:30;;;;;;;47.72;36.08;;;10.40;99.90;;;;;;5115664;27;20405;-90
2023/05/15 01:52:13;;;;;;;50.15;37.67;;;10.70;99.90;;;;;;5115449;27;20445;-90
2023/05/15 01:54:39;;;;;;;43.37;36.70;;;10.40;99.90;;;;;;5113650;27;20412;-89
2023/05/15 01:57:08;;;;;;;48.15;37.65;;;10.40;99.90;;;;;;5115796;27;20440;-90
2023/05/15 01:59:35;;;;;;;54.50;39.63;;;10.40;99.90;;;;;;5113669;27;20397;-89
2023/05/15 02:02:03;;;;;;;44.50;36.63;;;10.40;99.90;;;;;;5115574;27;20484;-90
2023/05/15 02:04:29;;;;;;;57.20;39.63;;;10.50;99.90;;;;;;5114236;27;20401;-89
2023/05/15 02:06:56;;;;;;;51.28;39.25;;;10.50;99.90;;;;;;5115396;27;20437;-90
2023/05/15 02:09:22;;;;;;;50.72;38.03;;;10.40;99.90;;;;;;5115349;27;20851;-89
2023/05/15 02:11:49;;;;;;;46.60;38.10;;;10.60;99.90;;;;;;5114349;27;20465;-90
2023/05/15 02:14:16;;;;;;;46.23;37.83;;;10.30;99.90;;;;;;5115756;27;20393;-90
2023/05/15 02:16:42;;;;;;;44.63;36.22;;;10.30;99.90;;;;;;5112856;27;20431;-90
2023/05/15 02:19:07;;;;;;;42.38;36.17;;;10.40;99.90;;;;;;5115340;27;20405;-91
2023/05/15 02:21:34;;;;;;;46.85;37.13;;;10.30;99.90;;;;;;5113625;27;20400;-88
2023/05/15 02:24:00;;;;;;;51.70;39.83;;;10.30;99.90;;;;;;5115459;27;20433;-91
2023/05/15 02:26:56;;;;;;;51.53;40.35;;;10.20;99.90;;;;;;5113897;27;20832;-91
2023/05/15 02:29:33;;;;;;;56.38;40.63;;;10.20;99.90;;;;;;5112788;27;20407;-91
2023/05/15 02:32:37;;;;;;;53.15;40.10;;;10.20;99.90;;;;;;5115731;27;20416;-90
2023/05/15 02:35:05;;;;;;;46.92;38.70;;;10.20;99.90;;;;;;5012881;28;21090;-90
2023/05/15 02:37:37;;;;;;;47.83;39.43;;;10.20;99.90;;;;;;5094461;27;20830;-90
2023/05/15 02:40:05;;;;;;;44.85;36.35;;;10.10;99.90;;;;;;5115218;27;20409;-89
2023/05/15 02:42:31;;;;;;;46.05;37.00;;;10.10;99.90;;;;;;5113119;27;20404;-90
2023/05/15 02:44:57;;;;;;;48.25;38.72;;;10.10;99.90;;;;;;5114939;27;20428;-91
2023/05/15 02:47:25;;;;;;;52.00;40.47;;;10.10;99.90;;;;;;5112840;27;20889;-91
2023/05/15 02:49:51;;;;;;;54.75;41.00;;;10.10;99.90;;;;;;5114620;27;20415;-90
2023/05/15 02:52:17;;;;;;;53.05;41.63;;;10.30;99.90;;;;;;5113535;27;20420;-90
2023/05/15 02:54:43;;;;;;;55.15;43.15;;;10.10;99.90;;;;;;5113691;27;20401;-90
2023/05/15 02:57:08;;;;;;;57.15;42.85;;;10.30;99.90;;;;;;5114622;27;20420;-89
2023/05/15 02:59:34;;;;;;;59.93;44.23;;;10.20;99.90;;;;;;5113261;27;20405;-91
2023/05/15 03:02:02;;;;;;;53.40;42.60;;;10.10;99.90;;;;;;5114763;27;20397;-91
2023/05/15 03:04:28;;;;;;;50.10;41.17;;;10.20;99.90;;;;;;5112388;27;20423;-90
2023/05/15 03:06:53;;;;;;;50.60;41.22;;;10.30;99.90;;;;;;5114690;27;20496;-91
2023/05/15 03:09:19;;;;;;;48.08;39.10;;;10.20;99.90;;;;;;5112839;27;20405;-90
2023/05/15 03:11:45;;;;;;;48.17;39.63;;;10.40;99.90;;;;;;5114571;27;20871;-90
2023/05/15 03:14:11;;;;;;;47.43;38.00;;;10.70;99.90;;;;;;5114297;27;20424;-89
2023/05/15 03:16:37;;;;;;;38.33;33.15;;;10.50;99.90;;;;;;5112792;27;20413;-90
2023/05/15 03:19:03;;;;;;;37.88;33.55;;;10.50;99.90;;;;;;5114120;27;20394;-89
2023/05/15 03:21:29;;;;;;;34.78;31.08;;;10.50;99.90;;;;;;5112487;27;20829;-89
2023/05/15 03:23:55;;;;;;;34.67;30.98;;;10.50;99.90;;;;;;5113864;27;20461;-92
2023/05/15 03:26:20;;;;;;;35.53;30.55;;;10.50;99.90;;;;;;5111839;27;20905;-90
2023/05/15 03:28:46;;;;;;;30.83;27.80;;;10.50;99.90;;;;;;5113465;27;20447;-90
2023/05/15 03:31:13;;;;;;;33.08;29.70;;;10.60;99.90;;;;;;5112899;27;20396;-89
2023/05/15 03:33:39;;;;;;;33.65;30.15;;;10.70;99.90;;;;;;5113421;27;20446;-89
2023/05/15 03:36:06;;;;;;;35.05;30.65;;;10.50;99.90;;;;;;5114021;27;20585;-90
2023/05/15 03:38:32;;;;;;;31.42;28.13;;;10.40;99.90;;;;;;5112090;27;20395;-89
2023/05/15 03:40:58;;;;;;;34.20;30.67;;;11.00;99.90;;;;;;5114308;27;20790;-91
2023/05/15 03:43:24;;;;;;;32.63;29.23;;;10.30;99.90;;;;;;5111921;27;20407;-89
2023/05/15 03:45:49;;;;;;;33.57;30.20;;;10.30;99.90;;;;;;5114525;27;20397;-89
2023/05/15 03:48:15;;;;;;;32.17;28.73;;;10.30;99.90;;;;;;5112047;27;20944;-89
2023/05/15 03:50:42;;;;;;;33.92;30.33;;;10.30;99.90;;;;;;5113650;27;20393;-89
2023/05/15 03:53:08;;;;;;;34.42;30.63;;;10.40;99.90;;;;;;5113630;27;20440;-89
2023/05/15 03:55:34;;;;;;;35.22;30.30;;;11.10;99.90;;;;;;5112483;27;20429;-90
2023/05/15 03:58:01;;;;;;;33.80;30.27;;;10.40;99.90;;;;;;5113892;27;20397;-90
2023/05/15 04:00:26;;;;;;;31.35;28.15;;;10.40;99.90;;;;;;5111696;27;20484;-90
2023/05/15 04:02:52;;;;;;;30.63;27.58;;;10.50;99.90;;;;;;5113970;27;20519;-90
2023/05/15 04:05:20;;;;;;;30.42;27.30;;;10.40;99.90;;;;;;5111884;27;20399;-89
2023/05/15 04:07:46;;;;;;;27.53;24.63;;;10.70;99.90;;;;;;5114206;27;20411;-91
2023/05/15 04:10:11;;;;;;;30.10;26.97;;;10.60;99.90;;;;;;5113085;27;20401;-89
2023/05/15 04:12:37;;;;;;;28.85;26.05;;;10.70;99.90;;;;;;5112779;27;20451;-89
2023/05/15 04:15:33;;;;;;;28.63;25.92;;;10.80;99.90;;;;;;5113572;27;20526;-91
2023/05/15 04:17:59;;;;;;;29.70;26.80;;;10.70;99.90;;;;;;5091039;27;20664;-91
2023/05/15 04:20:25;;;;;;;25.27;22.88;;;10.70;99.90;;;;;;5113801;27;20752;-89
2023/05/15 04:22:51;;;;;;;25.10;22.60;;;10.70;99.90;;;;;;5112492;27;20401;-89
2023/05/15 04:25:17;;;;;;;26.03;23.63;;;10.80;99.90;;;;;;5113167;27;20405;-90
2023/05/15 04:27:43;;;;;;;25.52;23.05;;;10.80;99.90;;;;;;5112830;27;20412;-89
2023/05/15 04:30:11;;;;;;;27.43;24.73;;;10.70;99.90;;;;;;5112062;27;20416;-90
2023/05/15 04:32:38;;;;;;;27.75;24.98;;;10.80;99.90;;;;;;5113664;27;20440;-90
2023/05/15 04:35:05;;;;;;;26.02;23.52;;;11.00;99.90;;;;;;5111076;27;20398;-91
2023/05/15 04:37:31;;;;;;;28.40;25.60;;;10.90;99.90;;;;;;5113147;27;20825;-90
2023/05/15 04:39:56;;;;;;;29.67;26.88;;;10.90;99.90;;;;;;5113032;27;20389;-90
2023/05/15 04:42:22;;;;;;;27.25;24.67;;;10.90;99.90;;;;;;5117190;27;20404;-90
2023/05/15 04:44:48;;;;;;;32.33;29.13;;;10.90;99.90;;;;;;5116362;27;20413;-89
2023/05/15 04:47:13;;;;;;;32.08;28.98;;;11.10;99.90;;;;;;5116093;27;20431;-89
2023/05/15 04:49:40;;;;;;;33.00;29.90;;;11.00;99.90;;;;;;5117020;27;20492;-90
2023/05/15 04:52:06;;;;;;;31.88;28.88;;;11.10;99.90;;;;;;5115055;27;20448;-90
2023/05/15 04:54:32;;;;;;;31.92;28.88;;;11.20;99.90;;;;;;5116786;27;20409;-90
2023/05/15 04:56:58;;;;;;;33.58;30.20;;;11.30;99.90;;;;;;5114891;27;20433;-89
2023/05/15 04:59:27;;;;;;;32.23;29.20;;;11.30;99.90;;;;;;5116852;27;20811;-91
2023/05/15 05:01:53;;;;;;;33.42;30.23;;;11.30;99.90;;;;;;5115272;27;20393;-89
2023/05/15 05:04:19;;;;;;;33.67;30.27;;;11.60;99.90;;;;;;5116654;27;20404;-89
2023/05/15 05:06:47;;;;;;;34.15;30.85;;;11.40;99.90;;;;;;5116630;27;20978;-90
2023/05/15 05:09:13;;;;;;;32.53;29.23;;;11.50;99.90;;;;;;5114778;27;20932;-92
2023/05/15 05:11:42;;;;;;;32.95;29.70;;;11.70;99.90;;;;;;5117132;27;20432;-90
2023/05/15 05:14:12;;;;;;;34.55;31.17;;;11.40;99.90;;;;;;5114668;27;20400;-91
2023/05/15 05:16:38;;;;;;;36.67;33.03;;;11.40;99.90;;;;;;5116547;27;20500;-90
2023/05/15 05:19:04;;;;;;;36.33;32.53;;;11.50;99.90;;;;;;5114808;27;20489;-91
2023/05/15 05:21:31;;;;;;;35.67;31.98;;;11.40;99.90;;;;;;5116089;27;20408;-92
2023/05/15 05:23:56;;;;;;;34.03;30.48;;;11.50;99.90;;;;;;5115603;27;20437;-90
2023/05/15 05:26:22;;;;;;;28.42;25.55;;;11.70;99.90;;;;;;5115251;27;20481;-90
2023/05/15 05:28:48;;;;;;;30.70;27.52;;;11.80;99.90;;;;;;5116785;27;20484;-90
2023/05/15 05:31:14;;;;;;;31.30;28.20;;;11.90;99.90;;;;;;5114563;27;20393;-89
2023/05/15 05:33:39;;;;;;;26.13;23.47;;;12.00;99.90;;;;;;5116449;27;20400;-90
2023/05/15 05:36:05;;;;;;;28.92;26.00;;;12.00;99.90;;;;;;5114348;27;20505;-92
2023/05/15 05:38:31;;;;;;;34.28;30.92;;;12.00;99.90;;;;;;5116290;27;20501;-91
2023/05/15 05:40:57;;;;;;;32.17;28.85;;;12.00;99.90;;;;;;5114708;27;20480;-89
2023/05/15 05:43:25;;;;;;;27.10;24.40;;;12.00;99.90;;;;;;5115562;27;20455;-91
2023/05/15 05:45:50;;;;;;;26.98;24.30;;;12.00;99.90;;;;;;5116521;27;20763;-90
2023/05/15 05:48:16;;;;;;;22.15;20.05;;;12.10;99.90;;;;;;5114103;27;20409;-90
2023/05/15 05:50:42;;;;;;;20.40;18.57;;;12.20;99.90;;;;;;5116043;27;20400;-91
2023/05/15 05:53:08;;;;;;;22.27;20.17;;;12.40;99.90;;;;;;5113456;27;20397;-88
2023/05/15 05:55:33;;;;;;;16.40;14.80;;;12.40;99.90;;;;;;5116215;27;20437;-91
2023/05/15 05:58:00;;;;;;;13.40;12.10;;;12.40;99.90;;;;;;5114071;27;20905;-90
2023/05/15 06:00:26;;;;;;;16.92;15.32;;;12.40;99.90;;;;;;5115488;27;20408;-91
2023/05/15 06:02:55;;;;;;;18.60;16.80;;;12.40;99.90;;;;;;5115069;27;20412;-90
2023/05/15 06:05:22;;;;;;;19.73;18.00;;;12.40;99.90;;;;;;5114452;27;20891;-92
2023/05/15 06:07:47;;;;;;;24.10;21.67;;;12.50;99.90;;;;;;5115899;27;20393;-90
2023/05/15 06:10:13;;;;;;;23.80;21.50;;;12.50;99.90;;;;;;5113775;27;20526;-90
2023/05/15 06:12:39;;;;;;;20.85;18.92;;;12.60;99.90;;;;;;5115783;27;20790;-90
2023/05/15 06:15:05;;;;;;;20.83;18.83;;;12.70;99.90;;;;;;5113375;27;20400;-89
2023/05/15 06:17:31;;;;;;;21.73;19.65;;;12.80;99.90;;;;;;5115188;27;20421;-90
2023/05/15 06:19:57;;;;;;;25.55;23.15;;;12.90;99.90;;;;;;5114650;27;20407;-91
2023/05/15 06:22:22;;;;;;;27.07;24.57;;;13.00;99.90;;;;;;5115148;27;20405;-92
2023/05/15 06:24:48;;;;;;;25.67;23.38;;;13.10;99.90;;;;;;5115499;27;20401;-90
2023/05/15 06:27:13;;;;;;;24.23;22.03;;;13.20;99.90;;;;;;5113814;27;20751;-91
2023/05/15 06:29:39;;;;;;;24.52;22.15;;;13.20;99.90;;;;;;5115574;27;20415;-91
2023/05/15 06:32:05;;;;;;;23.37;21.07;;;13.30;99.90;;;;;;5113203;27;20953;-90
2023/05/15 06:34:31;;;;;;;22.00;19.98;;;13.60;99.90;;;;;;5115253;27;20462;-91
2023/05/15 06:36:56;;;;;;;20.00;18.10;;;13.80;99.90;;;;;;5113447;27;20504;-91
2023/05/15 06:39:22;;;;;;;21.30;19.37;;;14.40;99.90;;;;;;5115149;27;20401;-90
2023/05/15 06:41:48;;;;;;;19.80;17.88;;;14.10;99.90;;;;;;5114139;27;20393;-90
2023/05/15 06:44:13;;;;;;;21.13;19.13;;;14.00;99.90;;;;;;5113965;27;20412;-91
2023/05/15 06:46:39;;;;;;;20.53;18.50;;;13.70;99.90;;;;;;5115332;27;20423;-91
2023/05/15 06:49:05;;;;;;;17.45;15.85;;;13.50;99.90;;;;;;5113575;27;20413;-91
2023/05/15 06:51:30;;;;;;;19.60;17.80;;;13.30;99.90;;;;;;5115116;27;20408;-91
2023/05/15 06:53:56;;;;;;;17.83;16.23;;;13.20;99.90;;;;;;5113211;27;20393;-91
2023/05/15 06:56:21;;;;;;;17.47;15.77;;;13.20;99.90;;;;;;5114744;27;20421;-91
2023/05/15 06:58:47;;;;;;;16.15;14.45;;;13.30;99.90;;;;;;5113163;27;20997;-91
2023/05/15 07:01:13;;;;;;;14.07;12.77;;;13.80;99.90;;;;;;5114494;27;20396;-91
2023/05/15 07:03:38;;;;;;;16.00;14.57;;;13.90;99.90;;;;;;5113707;27;20401;-90
2023/05/15 07:06:04;;;;;;;16.42;14.80;;;13.80;99.90;;;;;;5113414;27;20397;-90
2023/05/15 07:08:30;;;;;;;16.13;14.43;;;13.80;99.90;;;;;;5114309;27;20398;-91
2023/05/15 07:10:55;;;;;;;16.92;15.43;;;13.90;99.90;;;;;;5112975;27;20396;-91
2023/05/15 07:13:21;;;;;;;14.63;13.23;;;13.90;99.90;;;;;;5114231;27;20405;-91
2023/05/15 07:15:47;;;;;;;14.02;12.75;;;14.20;99.90;;;;;;5112942;27;20425;-90
2023/05/15 07:18:12;;;;;;;13.85;12.45;;;14.20;99.90;;;;;;5114177;27;20404;-90
2023/05/15 07:20:38;;;;;;;14.37;13.17;;;14.20;99.90;;;;;;5113765;27;20405;-91
2023/05/15 07:23:04;;;;;;;13.43;12.13;;;14.10;99.90;;;;;;5113505;27;20389;-91
2023/05/15 07:25:30;;;;;;;14.23;12.93;;;14.40;99.90;;;;;;5114067;27;20488;-90
2023/05/15 07:27:55;;;;;;;14.07;12.77;;;14.70;99.90;;;;;;5112333;27;20397;-90
2023/05/15 07:30:22;;;;;;;13.77;12.57;;;15.10;99.90;;;;;;5116527;27;20967;-90
2023/05/15 07:32:47;;;;;;;13.57;12.18;;;15.10;99.90;;;;;;5112221;27;20420;-91
2023/05/15 07:35:13;;;;;;;13.60;12.30;;;15.20;99.90;;;;;;5114305;27;20397;-90
2023/05/15 07:37:39;;;;;;;13.00;11.70;;;15.20;99.90;;;;;;5112291;27;20790;-90
2023/05/15 07:40:06;;;;;;;13.30;12.10;;;15.20;99.90;;;;;;5114138;27;20871;-91
2023/05/15 07:42:32;;;;;;;12.55;11.35;;;15.00;99.90;;;;;;5113753;27;20891;-90
2023/05/15 07:44:57;;;;;;;13.95;12.55;;;14.90;99.90;;;;;;5112683;27;20403;-89
2023/05/15 07:47:23;;;;;;;14.13;12.73;;;15.30;99.90;;;;;;5114227;27;20405;-89
2023/05/15 07:49:49;;;;;;;14.20;12.88;;;15.30;99.90;;;;;;5112059;27;20436;-91
2023/05/15 07:52:14;;;;;;;14.53;13.17;;;16.00;99.90;;;;;;5114225;27;20439;-91
2023/05/15 07:54:43;;;;;;;15.52;14.13;;;16.00;99.90;;;;;;5111935;27;20453;-91
2023/05/15 07:57:09;;;;;;;15.63;14.15;;;16.10;99.90;;;;;;5113766;27;20425;-90
2023/05/15 07:59:35;;;;;;;15.57;14.23;;;15.80;99.90;;;;;;5112736;27;20970;-91
2023/05/15 08:02:01;;;;;;;16.33;14.82;;;15.80;99.90;;;;;;5113081;27;20405;-91
2023/05/15 08:04:27;;;;;;;16.88;15.30;;;15.60;99.90;;;;;;5113822;27;20426;-90
2023/05/15 08:06:52;;;;;;;16.17;14.63;;;15.40;99.90;;;;;;5112076;27;20408;-92
2023/05/15 08:09:18;;;;;;;15.03;13.60;;;15.30;99.90;;;;;;5114151;27;20449;-91
2023/05/15 08:11:43;;;;;;;13.93;12.63;;;15.60;99.90;;;;;;5112031;27;20925;-91
2023/05/15 08:14:09;;;;;;;14.40;13.20;;;15.60;99.90;;;;;;5114634;27;20409;-90
2023/05/15 08:16:35;;;;;;;14.95;13.65;;;15.30;99.90;;;;;;5115796;27;20465;-91
2023/05/15 08:19:03;;;;;;;14.18;12.88;;;15.50;99.90;;;;;;5117446;27;20397;-90
2023/05/15 08:21:31;;;;;;;15.80;14.25;;;15.80;99.90;;;;;;5117203;27;20409;-90
2023/05/15 08:23:58;;;;;;;15.88;14.43;;;16.10;99.90;;;;;;5116119;27;20396;-90
2023/05/15 08:26:24;;;;;;;15.27;13.88;;;16.10;99.90;;;;;;5117858;27;20740;-92
2023/05/15 08:28:50;;;;;;;15.43;14.02;;;16.10;99.90;;;;;;5115660;27;21221;-92
2023/05/15 08:31:16;;;;;;;14.83;13.60;;;16.60;99.90;;;;;;5118124;27;20431;-91
2023/05/15 08:33:41;;;;;;;14.43;13.13;;;16.80;99.90;;;;;;5115478;27;20413;-91
2023/05/15 08:36:07;;;;;;;15.23;13.82;;;16.60;99.90;;;;;;5117373;27;20424;-92
2023/05/15 08:38:33;;;;;;;15.73;14.37;;;16.80;99.90;;;;;;5116732;27;20488;-93
2023/05/15 08:41:06;;;;;;;14.63;13.32;;;17.00;99.90;;;;;;5116379;27;20393;-92
2023/05/15 08:43:35;;;;;;;14.77;13.45;;;17.20;99.90;;;;;;5117685;27;20419;-91
2023/05/15 08:46:01;;;;;;;15.27;13.77;;;17.40;99.90;;;;;;5115371;27;20391;-91
2023/05/15 08:48:28;;;;;;;14.20;13.00;;;17.60;99.90;;;;;;5117569;27;20401;-92
2023/05/15 08:50:56;;;;;;;15.63;14.02;;;17.90;98.40;;;;;;5115765;27;20445;-92
2023/05/15 08:53:22;;;;;;;14.23;13.02;;;17.60;99.90;;;;;;5117276;27;20412;-92
2023/05/15 08:55:49;;;;;;;13.48;12.23;;;18.10;99.90;;;;;;5116103;27;20424;-91
2023/05/15 08:58:15;;;;;;;14.82;13.32;;;17.80;99.90;;;;;;5116445;27;20484;-92
2023/05/15 09:00:41;;;;;;;12.40;11.25;;;18.20;99.90;;;;;;5117066;27;20462;-91
2023/05/15 09:03:13;;;;;;;11.87;10.77;;;18.40;98.50;;;;;;5115140;27;20397;-91
2023/05/15 09:05:39;;;;;;;13.15;11.85;;;18.60;99.60;;;;;;5117003;27;20401;-92
2023/05/15 09:08:07;;;;;;;13.40;12.20;;;19.10;96.80;;;;;;5114909;27;20751;-92
2023/05/15 09:10:35;;;;;;;14.55;13.07;;;19.10;94.50;;;;;;5117378;27;20415;-92
2023/05/15 09:13:01;;;;;;;13.63;12.30;;;19.00;91.40;;;;;;5115642;27;20399;-91
2023/05/15 09:15:28;;;;;;;13.37;12.13;;;18.90;93.30;;;;;;5116069;27;20839;-92
2023/05/15 09:17:55;;;;;;;14.65;13.25;;;18.30;96.00;;;;;;5116668;27;20457;-92
2023/05/15 09:20:26;;;;;;;14.68;13.20;;;18.20;93.30;;;;;;5115061;27;20393;-91
2023/05/15 09:22:53;;;;;;;14.43;13.05;;;18.30;99.20;;;;;;5116639;27;20446;-91
2023/05/15 09:25:34;;;;;;;14.60;13.35;;;18.50;96.00;;;;;;5114819;27;20411;-91
2023/05/15 09:28:00;;;;;;;13.95;12.60;;;18.30;96.00;;;;;;5116238;27;20416;-92
2023/05/15 09:30:26;;;;;;;14.30;13.00;;;18.20;99.90;;;;;;5115842;27;20401;-92
2023/05/15 09:32:54;;;;;;;14.40;13.00;;;18.20;98.70;;;;;;5115784;27;20412;-94
2023/05/15 09:35:33;;;;;;;13.77;12.60;;;18.30;98.30;;;;;;5116484;27;20475;-92
2023/05/15 09:38:00;;;;;;;15.30;13.90;;;18.00;99.30;;;;;;5114591;27;20993;-93
2023/05/15 09:40:30;;;;;;;13.97;12.67;;;18.00;99.40;;;;;;5116538;27;20412;-92
2023/05/15 09:42:57;;;;;;;14.00;12.70;;;18.20;97.90;;;;;;5114549;27;20910;-93
2023/05/15 09:45:28;;;;;;;14.50;13.30;;;18.40;97.60;;;;;;5116383;27;20396;-91
2023/05/15 09:47:56;;;;;;;15.38;14.05;;;18.70;93.20;;;;;;5115857;27;20405;-92
2023/05/15 09:50:23;;;;;;;15.82;14.35;;;18.80;92.20;;;;;;5114806;27;20393;-94
2023/05/15 09:52:50;;;;;;;15.15;13.65;;;18.90;90.50;;;;;;5116159;27;20401;-92
2023/05/15 09:55:18;;;;;;;14.70;13.40;;;19.30;91.10;;;;;;5114353;27;20879;-92
2023/05/15 09:58:02;;;;;;;15.30;13.90;;;19.30;92.20;;;;;;5115800;27;20425;-92
2023/05/15 10:00:29;;;;;;;16.80;15.40;;;19.30;90.80;;;;;;5114486;27;20532;-93
2023/05/15 10:02:57;;;;;;;15.00;13.77;;;19.50;84.40;;;;;;5115667;27;20401;-93
2023/05/15 10:05:27;;;;;;;14.98;13.68;;;19.40;90.80;;;;;;5115938;27;20411;-92
2023/05/15 10:07:57;;;;;;;15.30;14.07;;;19.20;91.20;;;;;;5114118;27;20397;-94
2023/05/15 10:10:23;;;;;;;15.43;14.13;;;19.60;79.90;;;;;;5115544;27;20405;-92
2023/05/15 10:12:50;;;;;;;15.02;13.63;;;19.70;84.50;;;;;;5113588;27;20916;-92
2023/05/15 10:15:20;;;;;;;14.07;12.77;;;20.00;89.40;;;;;;5115586;27;20406;-92
2023/05/15 10:17:51;;;;;;;12.65;11.65;;;20.00;87.80;;;;;;5113854;27;20415;-92
2023/05/15 10:20:19;;;;;;;12.77;11.68;;;20.30;77.50;;;;;;5115739;27;20388;-92
2023/05/15 10:22:46;;;;;;;11.23;10.32;;;20.50;89.30;;;;;;5115629;27;20400;-94
2023/05/15 10:25:20;;;;;;;10.48;9.57;;;20.80;67.00;;;;;;5110323;27;20403;-92
2023/05/15 10:27:48;;;;;;;9.23;8.40;;;20.90;77.30;;;;;;5111873;27;20858;-92
2023/05/15 10:30:15;;;;;;;9.83;8.90;;;20.90;74.20;;;;;;5109729;27;20412;-93
2023/05/15 10:32:43;;;;;;;9.25;8.32;;;20.80;71.70;;;;;;5112184;27;20769;-93
2023/05/15 10:35:10;;;;;;;9.90;9.10;;;20.80;84.20;;;;;;5110055;27;20928;-92
2023/05/15 10:37:40;;;;;;;9.20;8.40;;;20.90;73.40;;;;;;5111167;27;20426;-93
2023/05/15 10:40:09;;;;;;;9.30;8.60;;;20.40;68.00;;;;;;5111946;27;20821;-93
2023/05/15 10:42:36;;;;;;;8.98;8.18;;;20.30;67.50;;;;;;5110233;27;20414;-91
2023/05/15 10:45:02;;;;;;;8.65;7.85;;;20.50;82.70;;;;;;5111528;27;20390;-93
2023/05/15 10:47:32;;;;;;;9.10;7.85;;;20.60;66.30;;;;;;5109716;27;20410;-93
2023/05/15 10:49:57;;;;;;;8.50;7.70;;;20.80;64.10;;;;;;5111708;27;20421;-92
2023/05/15 10:52:23;;;;;;;8.05;7.25;;;20.80;71.50;;;;;;5109396;27;20893;-93
2023/05/15 10:54:51;;;;;;;8.20;7.50;;;20.70;66.60;;;;;;5111041;27;20407;-92
2023/05/15 10:57:17;;;;;;;7.28;6.68;;;20.50;63.00;;;;;;5110626;27;20431;-94
2023/05/15 10:59:43;;;;;;;7.50;6.90;;;20.70;65.40;;;;;;5109756;27;20587;-93
2023/05/15 11:02:23;;;;;;;9.10;7.70;;;21.00;67.70;;;;;;5111409;27;20395;-92
2023/05/15 11:05:04;;;;;;;8.70;7.90;;;20.80;62.80;;;;;;5109263;27;20485;-92
2023/05/15 11:07:30;;;;;;;9.30;8.50;;;21.00;66.70;;;;;;5110993;27;20407;-93
2023/05/15 11:09:56;;;;;;;9.55;8.75;;;20.80;65.10;;;;;;5110104;27;20414;-91
2023/05/15 11:12:23;;;;;;;9.40;8.53;;;20.40;69.00;;;;;;5110259;27;20919;-92
2023/05/15 11:14:55;;;;;;;9.10;8.30;;;20.50;61.50;;;;;;5111274;27;20399;-93
2023/05/15 11:17:22;;;;;;;8.68;7.88;;;20.90;66.80;;;;;;5108955;27;20891;-92
2023/05/15 11:19:48;;;;;;;8.13;7.47;;;21.10;72.30;;;;;;5111272;27;20406;-92
2023/05/15 11:22:15;;;;;;;9.63;8.82;;;21.20;63.90;;;;;;5108817;27;20395;-92
2023/05/15 11:24:54;;;;;;;10.07;9.07;;;21.30;63.40;;;;;;5110833;27;20419;-92
2023/05/15 11:27:25;;;;;;;9.85;9.05;;;21.10;59.90;;;;;;5109970;27;20494;-92
2023/05/15 11:30:19;;;;;;;9.95;9.15;;;20.90;64.90;;;;;;5109963;27;20402;-93
2023/05/15 11:32:54;;;;;;;9.90;8.90;;;20.80;64.50;;;;;;5110718;27;20411;-92
2023/05/15 11:35:31;;;;;;;10.63;9.73;;;20.70;66.00;;;;;;5108939;27;20450;-92
2023/05/15 11:38:09;;;;;;;9.77;8.98;;;20.60;71.90;;;;;;5110491;27;20426;-92
2023/05/15 11:40:54;;;;;;;10.40;9.45;;;20.80;74.80;;;;;;5110508;27;20439;-93
2023/05/15 11:43:30;;;;;;;8.80;8.10;;;21.00;75.10;;;;;;5109188;28;20947;-91
2023/05/15 11:46:02;;;;;;;8.30;7.60;;;21.30;64.40;;;;;;5110994;28;20402;-93
2023/05/15 11:48:46;;;;;;;8.60;7.85;;;21.40;60.80;;;;;;5108516;28;20413;-92
2023/05/15 11:51:23;;;;;;;8.55;7.75;;;20.80;63.00;;;;;;5109437;28;20406;-92
2023/05/15 11:53:51;;;;;;;8.13;7.43;;;20.40;64.00;;;;;;5110350;28;20887;-92
2023/05/15 11:56:21;;;;;;;7.63;6.93;;;19.90;65.60;;;;;;5108351;28;20410;-92
2023/05/15 11:58:55;;;;;;;7.80;7.00;;;19.70;66.70;;;;;;5110627;28;20738;-91
2023/05/15 12:01:21;;;;;;;7.10;6.40;;;19.40;81.90;;;;;;5108638;28;20406;-92
2023/05/15 12:03:48;;;;;;;6.90;6.20;;;19.00;83.10;;;;;;5110624;28;20486;-91
2023/05/15 12:06:14;;;;;;;6.40;5.80;;;18.60;83.90;;;;;;5109750;28;20583;-91
2023/05/15 12:08:41;;;;;;;7.18;6.45;;;18.60;88.30;;;;;;5109401;28;20399;-92
2023/05/15 12:11:07;;;;;;;6.65;6.07;;;18.50;87.40;;;;;;5110714;28;20402;-92
2023/05/15 12:13:34;;;;;;;6.95;6.22;;;18.20;84.80;;;;;;5108855;28;20782;-91
2023/05/15 12:16:03;;;;;;;6.82;6.22;;;18.20;94.90;;;;;;5110588;28;20458;-92
2023/05/15 12:18:31;;;;;;;6.90;6.30;;;18.10;92.60;;;;;;5108031;28;20399;-92
2023/05/15 12:20:56;;;;;;;7.68;6.90;;;18.00;91.90;;;;;;5110500;28;20399;-92
2023/05/15 12:23:24;;;;;;;8.50;7.70;;;18.00;95.30;;;;;;5109070;28;20406;-91
2023/05/15 12:25:57;;;;;;;9.05;8.25;;;18.20;96.50;;;;;;5113011;27;20916;-95
2023/05/15 12:28:23;;;;;;;8.87;8.07;;;17.70;96.80;;;;;;5113922;27;20420;-91
2023/05/15 12:30:49;;;;;;;8.82;8.02;;;17.60;95.30;;;;;;5111938;27;20894;-92
2023/05/15 12:33:15;;;;;;;10.30;8.05;;;17.60;97.20;;;;;;5114247;27;20416;-91
2023/05/15 12:35:43;;;;;;;9.30;8.50;;;17.80;96.00;;;;;;5111522;27;20397;-92